Time;durP1;ratioP1;P1;durP2;ratioP2;P2;SDS_P1;SDS_P2;PMS_P1;PMS_P2;Temp;Humidity;BMP_temperature;BMP_pressure;BME280_temperature;BME280_humidity;BME280_pressure;Samples;Min_cycle;Max_cycle;Signal;HPM_P1;HPM_P2
2023/08/15 00:01:37;;;;;;;9.50;6.90;;;;;;;18.18;100.00;98276.65;106730;1279;25481;-78
2023/08/15 00:04:05;;;;;;;14.40;6.90;;;;;;;18.14;100.00;98275.70;106690;1279;25248;-77
2023/08/15 00:06:33;;;;;;;12.20;7.10;;;;;;;18.12;100.00;98277.73;106643;1279;25427;-78
2023/08/15 00:09:01;;;;;;;10.10;7.50;;;;;;;18.08;100.00;98277.73;106704;1279;25467;-78
2023/08/15 00:11:29;;;;;;;15.10;7.30;;;;;;;18.04;100.00;98282.69;106703;1279;22534;-78
2023/08/15 00:13:57;;;;;;;8.00;7.10;;;;;;;18.05;100.00;98282.26;106730;1279;25336;-78
2023/08/15 00:16:25;;;;;;;11.00;7.10;;;;;;;18.06;100.00;98282.88;106715;1279;24477;-78
2023/08/15 00:18:53;;;;;;;12.80;7.10;;;;;;;18.04;100.00;98284.80;106698;1256;22531;-78
2023/08/15 00:21:21;;;;;;;12.30;7.50;;;;;;;18.05;100.00;98286.05;106661;1279;22612;-78
2023/08/15 00:23:49;;;;;;;13.10;7.90;;;;;;;18.05;100.00;98286.27;106677;1279;24247;-78
2023/08/15 00:26:17;;;;;;;10.50;8.10;;;;;;;18.04;100.00;98285.80;106683;1279;22626;-77
2023/08/15 00:28:45;;;;;;;9.90;7.60;;;;;;;18.04;100.00;98284.39;106571;1263;179569;-77
2023/08/15 00:31:13;;;;;;;14.70;8.00;;;;;;;18.03;100.00;98283.02;106697;1279;22543;-77
2023/08/15 00:33:41;;;;;;;11.60;8.00;;;;;;;17.95;100.00;98281.05;106677;1279;22549;-77
2023/08/15 00:36:09;;;;;;;12.70;7.70;;;;;;;17.86;100.00;98282.38;106654;1279;22659;-77
2023/08/15 00:38:37;;;;;;;11.20;8.00;;;;;;;17.79;100.00;98288.05;106428;1273;22534;-77
2023/08/15 00:41:05;;;;;;;8.90;7.80;;;;;;;17.75;100.00;98284.61;106384;1279;22601;-77
2023/08/15 00:43:35;;;;;;;11.10;8.30;;;;;;;17.70;100.00;98285.94;106428;1279;22530;-77
2023/08/15 00:46:06;;;;;;;9.40;7.80;;;;;;;17.63;100.00;98280.63;106434;1279;22530;-77
2023/08/15 00:48:36;;;;;;;9.40;7.50;;;;;;;17.58;100.00;98279.29;106661;1279;25400;-77
2023/08/15 00:51:04;;;;;;;9.30;7.70;;;;;;;17.54;100.00;98278.37;106631;1279;24351;-77
2023/08/15 00:53:35;;;;;;;11.50;8.50;;;;;;;17.49;100.00;98277.97;106385;1279;24452;-77
2023/08/15 00:56:04;;;;;;;10.80;7.90;;;;;;;17.45;100.00;98280.63;106494;1257;22545;-77
2023/08/15 00:58:32;;;;;;;12.50;7.50;;;;;;;17.42;100.00;98277.13;106458;1279;22525;-77
2023/08/15 01:01:01;;;;;;;11.70;8.60;;;;;;;17.40;100.00;98277.91;106422;1279;24462;-78
2023/08/15 01:03:29;;;;;;;11.10;8.70;;;;;;;17.36;100.00;98276.54;106731;1279;24291;-78
2023/08/15 01:06:00;;;;;;;9.20;8.10;;;;;;;17.34;100.00;98275.14;106504;1279;25661;-78
2023/08/15 01:08:28;;;;;;;12.30;8.10;;;;;;;17.33;100.00;98272.15;106646;1279;22765;-78
2023/08/15 01:10:57;;;;;;;12.60;9.20;;;;;;;17.32;100.00;98268.09;106426;1279;22683;-77
2023/08/15 01:13:38;;;;;;;8.80;7.90;;;;;;;17.29;100.00;98271.61;106427;1279;25368;-77
2023/08/15 01:16:21;;;;;;;11.90;7.50;;;;;;;17.26;100.00;98268.64;106713;1279;22747;-77
2023/08/15 01:19:00;;;;;;;8.70;7.80;;;;;;;17.24;100.00;98264.44;106703;1279;24196;-77
2023/08/15 01:21:34;;;;;;;10.40;7.40;;;;;;;17.23;100.00;98266.11;106488;1279;24388;-77
2023/08/15 01:24:02;;;;;;;;;;;;;;;17.21;100.00;98262.64;106352;1279;22598;-77
2023/08/15 01:26:30;;;;;;;11.70;8.60;;;;;;;17.17;100.00;98263.41;106532;1279;25646;-77
2023/08/15 01:28:58;;;;;;;12.00;8.20;;;;;;;17.15;100.00;98264.64;106459;1279;24387;-77
2023/08/15 01:31:35;;;;;;;12.50;7.80;;;;;;;17.13;100.00;98259.98;106439;1279;24225;-77
2023/08/15 01:34:13;;;;;;;9.50;7.10;;;;;;;17.11;100.00;98263.17;106445;1279;22542;-77
2023/08/15 01:36:54;;;;;;;10.50;8.10;;;;;;;17.10;100.00;98263.79;106386;1279;22601;-76
2023/08/15 01:39:27;;;;;;;9.80;8.00;;;;;;;17.11;100.00;98261.93;106475;1279;25516;-76
2023/08/15 01:41:58;;;;;;;10.20;8.00;;;;;;;17.13;100.00;98260.16;106416;1279;24254;-77
2023/08/15 01:44:29;;;;;;;11.60;8.20;;;;;;;17.15;100.00;98256.41;106529;1279;22543;-77
2023/08/15 01:46:57;;;;;;;15.00;7.70;;;;;;;17.15;100.00;98259.39;106500;1256;22538;-76
2023/08/15 01:49:25;;;;;;;9.50;8.20;;;;;;;17.17;100.00;98260.59;106657;1279;24095;-77
2023/08/15 01:51:54;;;;;;;10.80;8.20;;;;;;;17.16;100.00;98258.64;106691;1258;24945;-77
2023/08/15 01:54:22;;;;;;;10.50;7.40;;;;;;;17.15;100.00;98261.02;106655;1279;23472;-77
2023/08/15 01:56:50;;;;;;;10.80;8.60;;;;;;;17.15;100.00;98255.48;106712;1279;25289;-77
2023/08/15 01:59:18;;;;;;;10.00;8.30;;;;;;;17.14;100.00;98251.25;106620;1279;24387;-77
2023/08/15 02:01:46;;;;;;;12.60;8.30;;;;;;;17.12;100.00;98251.71;106529;1279;22748;-77
2023/08/15 02:04:14;;;;;;;14.10;9.40;;;;;;;17.10;100.00;98252.27;106435;1279;22619;-77
2023/08/15 02:06:42;;;;;;;11.00;8.30;;;;;;;17.09;100.00;98255.81;106410;1279;24280;-76
2023/08/15 02:09:10;;;;;;;13.00;9.10;;;;;;;17.09;100.00;98252.30;106378;1279;22590;-76
2023/08/15 02:11:38;;;;;;;11.80;8.60;;;;;;;17.06;100.00;98250.23;106446;1279;25416;-76
2023/08/15 02:14:06;;;;;;;11.10;8.60;;;;;;;17.01;100.00;98252.70;106353;1279;24209;-76
2023/08/15 02:16:34;;;;;;;10.70;8.50;;;;;;;16.96;100.00;98255.01;106369;1279;25578;-76
2023/08/15 02:19:02;;;;;;;12.60;8.00;;;;;;;16.95;100.00;98254.13;106412;1279;22671;-76
2023/08/15 02:21:30;;;;;;;12.50;8.70;;;;;;;16.95;100.00;98255.13;106444;1279;25403;-76
2023/08/15 02:23:58;;;;;;;14.80;9.00;;;;;;;16.95;100.00;98255.20;106456;1279;22639;-76
2023/08/15 02:26:26;;;;;;;14.50;9.10;;;;;;;16.94;100.00;98252.20;106432;1279;23904;-76
2023/08/15 02:28:54;;;;;;;11.00;8.80;;;;;;;16.91;100.00;98247.38;106464;1279;22603;-77
2023/08/15 02:31:26;;;;;;;11.20;9.60;;;;;;;16.90;100.00;98246.52;106435;1279;22612;-77
2023/08/15 02:33:54;;;;;;;13.40;8.80;;;;;;;16.88;100.00;98245.92;106488;1279;25434;-76
2023/08/15 02:36:22;;;;;;;12.60;8.90;;;;;;;16.89;100.00;98249.06;106432;1279;24235;-77
2023/08/15 02:38:50;;;;;;;13.50;8.80;;;;;;;16.89;100.00;98247.74;106396;1279;22534;-77
2023/08/15 02:41:20;;;;;;;12.10;9.20;;;;;;;16.88;100.00;98247.64;106424;1279;22536;-77
2023/08/15 02:43:48;;;;;;;11.50;9.10;;;;;;;16.86;100.00;98248.77;106385;1279;24256;-77
2023/08/15 02:46:17;;;;;;;11.00;9.40;;;;;;;16.84;100.00;98250.52;106413;1279;23893;-80
2023/08/15 02:48:45;;;;;;;13.30;9.30;;;;;;;16.84;100.00;98254.63;106477;1280;24241;-76
2023/08/15 02:51:13;;;;;;;13.40;8.70;;;;;;;16.85;100.00;98254.64;106495;1279;22527;-76
2023/08/15 02:53:41;;;;;;;11.70;9.50;;;;;;;16.85;100.00;98258.17;106460;1279;25698;-76
2023/08/15 02:56:09;;;;;;;10.50;8.70;;;;;;;16.83;100.00;98261.81;106387;1279;22593;-76
2023/08/15 02:58:37;;;;;;;10.80;8.60;;;;;;;16.80;100.00;98261.73;106401;1279;25417;-77
2023/08/15 03:01:05;;;;;;;11.00;8.80;;;;;;;16.79;100.00;98264.17;106429;1280;22651;-76
2023/08/15 03:03:33;;;;;;;12.50;9.00;;;;;;;16.77;100.00;98268.84;106429;1279;25390;-77
2023/08/15 03:06:03;;;;;;;12.80;8.90;;;;;;;16.74;100.00;98267.92;106418;1279;25333;-77
2023/08/15 03:08:31;;;;;;;14.60;8.60;;;;;;;16.74;100.00;98271.25;106463;1279;23163;-77
2023/08/15 03:10:59;;;;;;;10.60;8.50;;;;;;;16.75;100.00;98270.15;106444;1279;22617;-77
2023/08/15 03:13:27;;;;;;;12.70;8.50;;;;;;;16.71;100.00;98270.21;106376;1279;24304;-77
2023/08/15 03:15:57;;;;;;;10.10;8.70;;;;;;;16.66;100.00;98269.08;106443;1280;22673;-76
2023/08/15 03:18:27;;;;;;;11.50;8.60;;;;;;;16.63;100.00;98270.13;106451;1279;23164;-76
2023/08/15 03:21:01;;;;;;;11.00;8.30;;;;;;;16.61;100.00;98263.61;106481;1279;26067;-76
2023/08/15 03:23:32;;;;;;;11.80;8.80;;;;;;;16.57;100.00;98264.55;106684;1280;22651;-77
2023/08/15 03:26:02;;;;;;;11.50;8.30;;;;;;;16.55;100.00;98265.48;106679;1279;22652;-77
2023/08/15 03:28:36;;;;;;;13.80;8.50;;;;;;;16.52;100.00;98265.10;106417;1280;26035;-77
2023/08/15 03:31:08;;;;;;;11.20;9.30;;;;;;;16.51;100.00;98264.21;106494;1279;25589;-77
2023/08/15 03:33:49;;;;;;;11.30;8.60;;;;;;;16.47;100.00;98261.91;106426;1279;25298;-76
2023/08/15 03:36:18;;;;;;;11.70;8.60;;;;;;;16.44;100.00;98264.56;106530;1279;22649;-76
2023/08/15 03:38:46;;;;;;;10.10;8.70;;;;;;;16.44;100.00;98265.63;106402;1279;24379;-76
2023/08/15 03:41:15;;;;;;;13.60;9.30;;;;;;;16.44;100.00;98268.88;106471;1279;22537;-76
2023/08/15 03:43:43;;;;;;;10.60;7.70;;;;;;;16.43;100.00;98274.15;106389;1279;24266;-76
2023/08/15 03:46:11;;;;;;;11.90;8.30;;;;;;;16.42;100.00;98274.50;106412;1279;22665;-76
2023/08/15 03:48:41;;;;;;;12.40;8.50;;;;;;;16.41;100.00;98275.88;106397;1279;25325;-77
2023/08/15 03:51:09;;;;;;;13.90;8.40;;;;;;;16.40;100.00;98278.06;106413;1279;24443;-77
2023/08/15 03:53:43;;;;;;;10.80;9.40;;;;;;;16.42;100.00;98279.23;106419;1264;24541;-77
2023/08/15 03:56:11;;;;;;;10.50;8.40;;;;;;;16.41;100.00;98278.98;106473;1279;22521;-76
2023/08/15 03:58:39;;;;;;;10.10;9.10;;;;;;;16.42;100.00;98277.52;106399;1279;25580;-77
2023/08/15 04:01:07;;;;;;;10.20;7.60;;;;;;;16.42;100.00;98274.91;106485;1279;23424;-77
2023/08/15 04:03:36;;;;;;;12.40;9.00;;;;;;;16.41;100.00;98274.38;106374;1279;22531;-77
2023/08/15 04:06:05;;;;;;;13.20;9.50;;;;;;;16.40;100.00;98274.66;106506;1279;22630;-77
2023/08/15 04:08:33;;;;;;;10.60;7.60;;;;;;;16.39;100.00;98276.30;106394;1279;25437;-77
2023/08/15 04:11:01;;;;;;;10.60;8.40;;;;;;;16.37;100.00;98278.27;106330;1279;22547;-76
2023/08/15 04:13:28;;;;;;;9.80;8.20;;;;;;;16.39;100.00;98280.82;106386;1279;22583;-76
2023/08/15 04:15:56;;;;;;;14.10;9.20;;;;;;;16.41;100.00;98280.45;106429;1279;22551;-77
2023/08/15 04:18:25;;;;;;;11.80;8.50;;;;;;;16.44;100.00;98285.53;106360;1279;23893;-76
2023/08/15 04:20:53;;;;;;;11.70;8.80;;;;;;;16.43;100.00;98277.81;106455;1279;22548;-77
2023/08/15 04:23:21;;;;;;;10.90;9.00;;;;;;;16.52;100.00;98284.30;106619;1279;24239;-76
2023/08/15 04:25:50;;;;;;;10.00;8.50;;;;;;;16.54;100.00;98285.58;106532;1279;22940;-76
2023/08/15 04:28:18;;;;;;;10.40;7.80;;;;;;;16.61;100.00;98285.22;106347;1279;25252;-77
2023/08/15 04:30:47;;;;;;;11.50;8.50;;;;;;;16.71;100.00;98287.53;106356;1279;27096;-77
2023/08/15 04:33:16;;;;;;;10.20;8.00;;;;;;;16.81;100.00;98285.77;106324;1279;25393;-76
2023/08/15 04:35:44;;;;;;;14.40;8.70;;;;;;;16.91;100.00;98283.91;106508;1266;22708;-77
2023/08/15 04:38:14;;;;;;;15.80;9.40;;;;;;;17.01;100.00;98284.92;106391;1280;25148;-76
2023/08/15 04:40:43;;;;;;;12.10;8.30;;;;;;;17.11;100.00;98286.42;106376;1279;22530;-77
2023/08/15 04:43:12;;;;;;;9.30;8.30;;;;;;;17.20;100.00;98282.34;106443;1279;25350;-77
2023/08/15 04:45:40;;;;;;;9.70;8.70;;;;;;;17.32;100.00;98284.59;106689;1279;22794;-78
2023/08/15 04:48:12;;;;;;;12.50;9.10;;;;;;;17.46;100.00;98288.18;106663;1279;25544;-77
2023/08/15 04:50:41;;;;;;;10.50;8.30;;;;;;;17.61;100.00;98289.21;106427;1279;22672;-76
2023/08/15 04:53:09;;;;;;;9.20;8.30;;;;;;;17.76;100.00;98289.20;106373;1279;22533;-76
2023/08/15 04:55:37;;;;;;;11.90;8.50;;;;;;;17.91;100.00;98287.99;106360;1279;22539;-77
2023/08/15 04:58:09;;;;;;;11.80;9.80;;;;;;;18.06;100.00;98289.63;106391;1280;23172;-78
2023/08/15 05:00:37;;;;;;;10.60;9.40;;;;;;;18.21;100.00;98294.46;106609;1279;23157;-78
2023/08/15 05:03:05;;;;;;;12.40;9.10;;;;;;;18.36;100.00;98291.70;106696;1256;22536;-78
2023/08/15 05:05:34;;;;;;;12.30;9.70;;;;;;;18.54;100.00;98286.41;106709;1279;22543;-78
2023/08/15 05:08:02;;;;;;;13.40;9.90;;;;;;;18.70;100.00;98286.05;106595;1279;22673;-77
2023/08/15 05:10:30;;;;;;;15.30;9.60;;;;;;;18.87;100.00;98290.66;106423;1279;25274;-77
2023/08/15 05:12:59;;;;;;;9.80;8.80;;;;;;;19.04;100.00;98289.68;106322;1279;24444;-78
2023/08/15 05:15:28;;;;;;;11.60;8.70;;;;;;;19.19;100.00;98288.72;106671;1280;22559;-78
2023/08/15 05:17:57;;;;;;;12.70;10.10;;;;;;;19.35;100.00;98289.27;106672;1279;22751;-79
2023/08/15 05:20:25;;;;;;;9.60;8.60;;;;;;;19.51;100.00;98288.23;106404;1279;22654;-78
2023/08/15 05:22:53;;;;;;;9.20;8.00;;;;;;;19.69;100.00;98288.42;106634;1279;23958;-78
2023/08/15 05:25:21;;;;;;;12.50;7.80;;;;;;;19.86;100.00;98292.10;106659;1279;24576;-76
2023/08/15 05:27:52;;;;;;;12.00;8.20;;;;;;;20.03;100.00;98291.04;106440;1279;25505;-77
2023/08/15 05:30:20;;;;;;;11.10;8.40;;;;;;;20.18;100.00;98295.81;106713;1279;25399;-78
2023/08/15 05:32:49;;;;;;;12.20;7.60;;;;;;;20.33;100.00;98293.35;106624;1279;25535;-78
2023/08/15 05:35:17;;;;;;;10.40;7.60;;;;;;;20.49;100.00;98294.61;106365;1264;23109;-76
2023/08/15 05:37:46;;;;;;;10.10;7.00;;;;;;;20.65;100.00;98296.42;106397;1279;25437;-77
2023/08/15 05:40:15;;;;;;;10.60;7.40;;;;;;;20.83;100.00;98296.45;106402;1279;24440;-77
2023/08/15 05:42:43;;;;;;;10.50;6.90;;;;;;;21.00;100.00;98297.84;106339;1279;24360;-77
2023/08/15 05:45:11;;;;;;;9.00;7.00;;;;;;;21.14;100.00;98302.36;106435;1279;25282;-76
2023/08/15 05:47:39;;;;;;;11.10;6.70;;;;;;;21.27;100.00;98301.10;106418;1279;22528;-77
2023/08/15 05:50:08;;;;;;;9.90;6.40;;;;;;;21.43;100.00;98303.70;106389;1279;22636;-77
2023/08/15 05:52:36;;;;;;;12.30;6.90;;;;;;;21.56;100.00;98300.84;106432;1279;25469;-77
2023/08/15 05:55:04;;;;;;;11.30;6.60;;;;;;;21.68;100.00;98302.88;106398;1279;22539;-77
2023/08/15 05:57:32;;;;;;;7.90;5.80;;;;;;;21.81;100.00;98298.42;106357;1277;22545;-78
2023/08/15 06:00:00;;;;;;;8.40;5.40;;;;;;;21.99;100.00;98300.31;106718;1279;25502;-77
2023/08/15 06:02:39;;;;;;;8.60;5.60;;;;;;;22.15;100.00;98302.17;106439;1279;22794;-78
2023/08/15 06:05:08;;;;;;;12.30;6.70;;;;;;;22.29;100.00;98302.36;106701;1279;22542;-77
2023/08/15 06:07:36;;;;;;;8.40;5.80;;;;;;;22.43;100.00;98304.71;106713;1279;24375;-78
2023/08/15 06:10:05;;;;;;;11.10;6.00;;;;;;;22.56;100.00;98307.20;106756;1279;25332;-76
2023/08/15 06:12:33;;;;;;;7.50;5.90;;;;;;;22.70;100.00;98309.52;106446;1279;22580;-77
2023/08/15 06:15:01;;;;;;;9.20;5.30;;;;;;;22.80;100.00;98308.04;106391;1280;24169;-78
2023/08/15 06:17:29;;;;;;;8.50;6.70;;;;;;;22.90;99.93;98310.29;106422;1279;24264;-79
2023/08/15 06:19:57;;;;;;;8.30;5.70;;;;;;;22.98;99.18;98309.98;106438;1279;24236;-79
2023/08/15 06:22:25;;;;;;;7.90;5.70;;;;;;;23.06;98.32;98305.68;106701;1279;24078;-78
2023/08/15 06:24:53;;;;;;;9.60;5.20;;;;;;;23.14;97.72;98305.88;106718;1279;26717;-78
2023/08/15 06:27:21;;;;;;;11.20;6.00;;;;;;;23.24;96.96;98305.85;106724;1279;22549;-78
2023/08/15 06:29:49;;;;;;;9.10;5.50;;;;;;;23.31;95.91;98310.65;106722;1279;22639;-78
2023/08/15 06:32:25;;;;;;;8.30;5.80;;;;;;;23.40;95.72;98311.48;106735;1279;25482;-78
2023/08/15 06:34:53;;;;;;;9.20;5.80;;;;;;;23.49;94.74;98312.23;106516;1257;25511;-77
2023/08/15 06:37:22;;;;;;;8.30;6.00;;;;;;;23.56;92.71;98318.82;106752;1279;22622;-79
2023/08/15 06:39:50;;;;;;;7.00;5.40;;;;;;;23.62;92.02;98316.14;106711;1279;22539;-80
2023/08/15 06:42:18;;;;;;;8.50;5.60;;;;;;;23.70;91.73;98323.00;106660;1279;24265;-78
2023/08/15 06:44:46;;;;;;;10.10;5.70;;;;;;;23.79;91.60;98315.50;106793;1280;22653;-78
2023/08/15 06:47:14;;;;;;;9.90;6.10;;;;;;;23.90;91.35;98317.42;106763;1279;22733;-77
2023/08/15 06:49:42;;;;;;;8.50;5.90;;;;;;;23.99;90.70;98317.20;106778;1279;25438;-78
2023/08/15 06:52:10;;;;;;;8.70;6.00;;;;;;;24.10;90.27;98318.41;106496;1279;22605;-78
2023/08/15 06:54:38;;;;;;;7.10;5.50;;;;;;;24.20;89.91;98316.77;106814;1279;24385;-78
2023/08/15 06:57:07;;;;;;;11.40;5.60;;;;;;;24.29;88.93;98318.83;106755;1280;22787;-78
2023/08/15 06:59:35;;;;;;;12.70;6.60;;;;;;;24.38;88.51;98318.83;106633;1279;24094;-78
2023/08/15 07:02:05;;;;;;;9.80;6.10;;;;;;;24.49;88.05;98322.48;106457;1279;25365;-77
2023/08/15 07:04:36;;;;;;;9.80;6.00;;;;;;;24.58;86.70;98321.70;106422;1280;25323;-77
2023/08/15 07:07:04;;;;;;;8.80;6.00;;;;;;;24.65;85.62;98317.81;106490;1280;25223;-77
2023/08/15 07:09:32;;;;;;;7.80;6.20;;;;;;;24.73;85.46;98323.39;106728;1279;22539;-78
2023/08/15 07:12:01;;;;;;;7.40;5.40;;;;;;;24.82;85.38;98327.16;106712;1279;23490;-77
2023/08/15 07:14:29;;;;;;;8.40;5.90;;;;;;;24.91;84.64;98326.44;106729;1279;23354;-78
2023/08/15 07:16:57;;;;;;;8.60;5.40;;;;;;;24.99;84.55;98326.65;106694;1279;25275;-78
2023/08/15 07:19:25;;;;;;;7.90;6.10;;;;;;;25.10;84.26;98327.67;106645;1279;22679;-77
2023/08/15 07:21:53;;;;;;;9.90;5.70;;;;;;;25.21;83.83;98331.21;106690;1279;23007;-78
2023/08/15 07:24:21;;;;;;;8.60;5.10;;;;;;;25.30;83.16;98334.73;106730;1279;22533;-77
2023/08/15 07:26:49;;;;;;;9.20;6.20;;;;;;;25.40;82.77;98334.63;106644;1279;25266;-77
2023/08/15 07:29:17;;;;;;;8.40;5.90;;;;;;;25.51;82.61;98331.52;106586;1279;22572;-79
2023/08/15 07:31:45;;;;;;;8.40;6.00;;;;;;;25.63;81.38;98331.33;106760;1279;22548;-78
2023/08/15 07:34:15;;;;;;;9.10;5.50;;;;;;;25.72;80.46;98333.90;106742;1279;25275;-78
2023/08/15 07:36:43;;;;;;;8.70;5.20;;;;;;;25.83;80.57;98334.82;106735;1279;26622;-78
2023/08/15 07:39:11;;;;;;;8.00;4.90;;;;;;;25.94;79.86;98339.98;106440;1279;24204;-77
2023/08/15 07:41:39;;;;;;;8.70;5.00;;;;;;;26.05;79.68;98338.98;106470;1279;25507;-78
2023/08/15 07:44:07;;;;;;;6.90;5.20;;;;;;;26.17;78.96;98338.21;106778;1266;25396;-77
2023/08/15 07:46:35;;;;;;;7.10;5.10;;;;;;;26.25;77.08;98336.56;106669;1266;23872;-78
2023/08/15 07:49:03;;;;;;;11.30;7.20;;;;;;;26.34;77.26;98341.71;106453;1279;22527;-78
2023/08/15 07:51:31;;;;;;;8.50;5.40;;;;;;;26.44;76.88;98342.59;106679;1279;22527;-77
2023/08/15 07:53:59;;;;;;;9.30;5.70;;;;;;;26.55;77.03;98340.17;106758;1279;24104;-78
2023/08/15 07:56:30;;;;;;;11.20;5.60;;;;;;;26.64;76.00;98338.36;106445;1279;22527;-78
2023/08/15 07:58:58;;;;;;;8.90;5.40;;;;;;;26.71;75.77;98336.07;106729;1280;23357;-77
2023/08/15 08:01:26;;;;;;;9.30;4.90;;;;;;;26.79;75.28;98335.98;106692;1280;23107;-79
2023/08/15 08:03:54;;;;;;;6.80;4.20;;;;;;;26.83;73.08;98335.11;106715;1280;23504;-77
2023/08/15 08:06:22;;;;;;;5.20;4.10;;;;;;;26.88;72.79;98333.45;106732;1279;25332;-77
2023/08/15 08:09:08;;;;;;;7.60;4.50;;;;;;;26.95;70.79;98334.23;106761;1279;25319;-78
2023/08/15 08:11:38;;;;;;;7.80;3.70;;;;;;;27.05;70.67;98335.80;106780;1279;22620;-78
2023/08/15 08:14:06;;;;;;;5.20;3.60;;;;;;;27.20;70.76;98334.83;106748;1279;25335;-78
2023/08/15 08:16:34;;;;;;;5.70;3.80;;;;;;;27.31;70.23;98327.06;106491;1279;24103;-78
2023/08/15 08:19:02;;;;;;;4.50;3.70;;;;;;;27.42;69.73;98327.89;106709;1280;24269;-78
2023/08/15 08:21:30;;;;;;;8.50;4.00;;;;;;;27.51;68.66;98331.82;106708;1280;22517;-77
2023/08/15 08:23:58;;;;;;;8.20;4.60;;;;;;;27.58;67.65;98330.45;106736;1280;24401;-77
2023/08/15 08:26:26;;;;;;;6.40;3.90;;;;;;;27.66;67.82;98324.39;106721;1279;23351;-78
2023/08/15 08:28:54;;;;;;;8.10;3.50;;;;;;;27.77;67.83;98324.27;106726;1279;22955;-78
2023/08/15 08:31:22;;;;;;;6.00;3.70;;;;;;;27.83;64.58;98324.42;106757;1280;23366;-78
2023/08/15 08:33:51;;;;;;;7.50;3.50;;;;;;;27.87;64.34;98323.38;106753;1279;25478;-77
2023/08/15 08:36:19;;;;;;;7.70;3.70;;;;;;;27.96;63.68;98326.41;106730;1279;22520;-77
2023/08/15 08:38:47;;;;;;;6.40;3.50;;;;;;;28.05;61.44;98323.11;106454;1278;25229;-77
2023/08/15 08:41:15;;;;;;;6.20;3.30;;;;;;;28.11;60.46;98326.16;106485;1280;25509;-77
2023/08/15 08:43:44;;;;;;;8.50;3.60;;;;;;;28.17;60.61;98327.78;106420;1280;25329;-77
2023/08/15 08:46:12;;;;;;;7.10;3.80;;;;;;;28.24;61.80;98326.46;106414;1280;22544;-77
2023/08/15 08:48:42;;;;;;;7.20;3.60;;;;;;;28.37;61.35;98322.80;106432;1279;24230;-77
2023/08/15 08:51:11;;;;;;;7.90;3.30;;;;;;;28.50;61.45;98320.29;106523;1280;22779;-77
2023/08/15 08:53:40;;;;;;;7.00;3.40;;;;;;;28.61;61.11;98322.81;106452;1279;25403;-77
2023/08/15 08:56:09;;;;;;;15.70;3.90;;;;;;;28.69;58.30;98317.98;106326;1280;22537;-77
2023/08/15 08:58:42;;;;;;;10.20;3.80;;;;;;;28.76;57.26;98317.38;106766;1280;22676;-77
2023/08/15 09:01:12;;;;;;;;;;;;;;;28.88;56.79;98313.45;106813;1279;22715;-77
2023/08/15 09:03:40;;;;;;;9.10;4.00;;;;;;;28.94;57.49;98313.15;106433;1280;22681;-77
2023/08/15 09:06:09;;;;;;;9.90;4.60;;;;;;;29.05;56.61;98313.86;106498;1279;22658;-77
2023/08/15 09:08:36;;;;;;;5.10;3.50;;;;;;;29.09;53.89;98319.06;106464;1280;23156;-78
2023/08/15 09:11:05;;;;;;;4.70;3.00;;;;;;;29.09;54.08;98317.79;106736;1279;24205;-78
2023/08/15 09:13:32;;;;;;;5.00;2.90;;;;;;;29.15;53.54;98317.89;106750;1280;25460;-78
2023/08/15 09:16:03;;;;;;;9.90;3.30;;;;;;;29.22;53.17;98315.59;106708;1279;22616;-77
2023/08/15 09:18:34;;;;;;;5.90;3.10;;;;;;;29.25;50.61;98313.80;106711;1280;22767;-77
2023/08/15 09:21:05;;;;;;;5.90;3.10;;;;;;;29.31;51.91;98312.86;106675;1279;22749;-77
2023/08/15 09:23:33;;;;;;;9.20;3.40;;;;;;;29.44;51.90;98312.16;106681;1280;23920;-77
2023/08/15 09:26:14;;;;;;;7.90;3.20;;;;;;;29.59;51.84;98308.09;106686;1280;24356;-77
2023/08/15 09:28:45;;;;;;;5.10;3.10;;;;;;;29.69;49.86;98308.70;106466;1279;22536;-77
2023/08/15 09:31:13;;;;;;;5.10;3.20;;;;;;;29.76;51.36;98302.81;106439;1280;24203;-78
2023/08/15 09:33:41;;;;;;;4.40;3.00;;;;;;;29.90;50.78;98301.11;106417;1280;22648;-77
2023/08/15 09:36:10;;;;;;;5.90;3.20;;;;;;;29.95;47.69;98302.40;106748;1280;24265;-77
2023/08/15 09:38:39;;;;;;;5.10;3.10;;;;;;;29.88;46.81;98303.92;106671;1280;22574;-78
2023/08/15 09:41:14;;;;;;;4.20;3.20;;;;;;;29.95;47.57;98299.46;106745;1279;22589;-78
2023/08/15 09:43:52;;;;;;;5.30;3.50;;;;;;;30.04;48.02;98296.63;106659;1280;25285;-79
2023/08/15 09:46:21;;;;;;;7.00;3.40;;;;;;;30.18;47.92;98294.28;106566;1279;25390;-78
2023/08/15 09:48:51;;;;;;;6.80;3.10;;;;;;;30.26;47.85;98293.06;106594;1279;22538;-77
2023/08/15 09:51:19;;;;;;;5.70;3.20;;;;;;;30.31;46.32;98285.45;106720;1280;25482;-77
2023/08/15 09:53:47;;;;;;;7.20;3.10;;;;;;;30.32;45.85;98282.80;106368;1279;22641;-77
2023/08/15 09:56:17;;;;;;;6.70;3.20;;;;;;;30.45;47.03;98277.98;106428;1279;24183;-77
2023/08/15 09:58:45;;;;;;;4.90;2.80;;;;;;;30.58;46.08;98277.61;106300;1279;24253;-78
2023/08/15 10:01:17;;;;;;;8.70;3.30;;;;;;;30.66;45.17;98274.52;106705;1279;22602;-77
2023/08/15 10:03:49;;;;;;;5.80;2.70;;;;;;;30.62;42.49;98273.09;106670;1279;25424;-76
2023/08/15 10:06:19;;;;;;;8.70;3.20;;;;;;;30.51;40.59;98271.86;106423;1280;23903;-78
2023/08/15 10:08:47;;;;;;;6.40;2.90;;;;;;;30.44;41.60;98271.95;106725;1279;22668;-77
2023/08/15 10:11:17;;;;;;;8.80;3.80;;;;;;;30.54;41.94;98266.80;106406;1280;24201;-77
2023/08/15 10:13:47;;;;;;;7.50;3.00;;;;;;;30.69;42.43;98264.61;106712;1279;24381;-79
2023/08/15 10:16:15;;;;;;;5.10;3.10;;;;;;;30.85;42.34;98259.76;106408;1279;25323;-76
2023/08/15 10:18:54;;;;;;;5.70;3.10;;;;;;;30.93;41.19;98257.45;106354;1279;22653;-77
2023/08/15 10:21:29;;;;;;;8.30;2.90;;;;;;;31.00;41.87;98257.30;106432;1279;22642;-77
2023/08/15 10:24:03;;;;;;;7.60;3.50;;;;;;;31.10;40.08;98253.63;106343;1280;22613;-77
2023/08/15 10:26:31;;;;;;;8.40;3.20;;;;;;;31.02;39.79;98251.70;106775;1280;22817;-78
2023/08/15 10:29:02;;;;;;;8.40;3.10;;;;;;;31.03;40.73;98248.43;106654;1279;22799;-78
2023/08/15 10:31:38;;;;;;;8.90;3.30;;;;;;;31.19;40.64;98251.61;106681;1279;24424;-77
2023/08/15 10:34:10;;;;;;;6.30;3.10;;;;;;;31.34;40.52;98247.90;106456;1263;24242;-77
2023/08/15 10:36:42;;;;;;;4.30;2.70;;;;;;;31.43;40.42;98248.36;106409;1279;22679;-80
2023/08/15 10:39:14;;;;;;;10.10;3.20;;;;;;;31.43;40.47;98244.30;106645;1279;22534;-77
2023/08/15 10:41:42;;;;;;;5.70;2.70;;;;;;;31.54;40.14;98248.30;106406;1279;22827;-77
2023/08/15 10:44:11;;;;;;;6.60;2.90;;;;;;;31.63;40.66;98243.37;106639;1279;22774;-78
2023/08/15 10:46:39;;;;;;;7.60;3.40;;;;;;;31.78;40.95;98244.50;106669;1280;24210;-78
2023/08/15 10:49:11;;;;;;;5.40;3.00;;;;;;;31.94;39.54;98251.17;106650;1279;22527;-78
2023/08/15 10:51:42;;;;;;;10.70;2.80;;;;;;;31.95;38.83;98251.92;106746;1279;22676;-78
2023/08/15 10:54:13;;;;;;;6.90;3.20;;;;;;;31.93;38.97;98256.84;106643;1279;22540;-78
2023/08/15 10:56:43;;;;;;;7.70;3.10;;;;;;;32.02;39.54;98259.34;106727;1280;25344;-78
2023/08/15 10:59:15;;;;;;;6.50;3.00;;;;;;;32.17;39.22;98256.27;106717;1280;25250;-78
2023/08/15 11:01:45;;;;;;;8.40;3.10;;;;;;;32.22;38.93;98255.66;106616;1280;25098;-78
2023/08/15 11:04:19;;;;;;;6.70;2.60;;;;;;;32.35;39.13;98253.89;106690;1280;22611;-76
2023/08/15 11:06:51;;;;;;;5.30;3.00;;;;;;;32.49;38.66;98256.22;106346;1279;22538;-78
2023/08/15 11:09:28;;;;;;;5.70;3.00;;;;;;;32.56;38.67;98250.20;106747;1280;25332;-78
2023/08/15 11:12:07;;;;;;;5.10;3.30;;;;;;;32.63;39.05;98248.21;106731;1280;24180;-78
2023/08/15 11:14:35;;;;;;;7.30;2.90;;;;;;;32.76;38.71;98253.30;106540;1279;22542;-78
2023/08/15 11:17:05;;;;;;;6.10;3.10;;;;;;;32.75;37.29;98253.23;106727;1280;24438;-78
2023/08/15 11:19:33;;;;;;;4.60;2.70;;;;;;;32.59;37.42;98251.09;106717;1279;22523;-78
2023/08/15 11:22:02;;;;;;;10.30;4.30;;;;;;;32.55;37.09;98246.50;106428;1279;22628;-77
2023/08/15 11:24:31;;;;;;;4.70;3.30;;;;;;;32.56;37.76;98245.19;106467;1279;25476;-77
2023/08/15 11:26:59;;;;;;;7.50;3.10;;;;;;;32.66;38.29;98248.77;106490;1279;25504;-77